Calgary, Alberta

10:07 AM MDT on August 04, 2015 (GMT -0600)
Springbank | | Change Station
CLOSE
Current Station
Airport
Location: Calgary Springbank,
Elevation: 3937 ft
Nearby Weather Stations

Elev 3937 ft 51.10 °N, 114.37 °W | Updated 7 minutes ago

Mostly Cloudy
Mostly Cloudy
63 °F
Feels Like 63 °F
N
16
Wind Variable Wind from NNW
Gusts 22 mph

Today is forecast to be nearly the same temperature as yesterday.

Today
High -- | Low -- °F
--% Chance of Precip.
Yesterday
High -- | Low -- °F
Precip. -- in
6:07 AM 9:19 PM
Waning Gibbous, 76% visible
Pressure 29.92 in
Visibility 9.0 miles
Clouds Mostly Cloudy 13000 ft
Dew Point 48 °F
Humidity 59%
Rainfall 0.00 in
Snow Depth Not available.
UV 2 out of 12
Pollen Not available.
Air Quality Not available.
Flu Activity Not available.
METAR CYBW 041600Z AUTO 33014G19KT 9SM BKN130 17/09 A2997 RMK SLP131 DENSITY ALT 5000FT

More Conditions Fewer Conditions

Pressure 29.92 in
Visibility 9.0 miles
Clouds Mostly Cloudy 13000 ft
Dew Point 48 °F
Humidity 59%
Rainfall 0.00 in
Snow Depth Not available.
UV 2 out of 12
Pollen Not available.
Air Quality Not available.
Flu Activity Not available.
METAR CYBW 041600Z AUTO 33014G19KT 9SM BKN130 17/09 A2997 RMK SLP131 DENSITY ALT 5000FT

More Conditions Fewer Conditions

10-Day Weather Forecast

×

Almanac

Astronomy

Aug. 04, 2015 Rise Set
Actual Time
Civil Twilight
Nautical Twilight
Astronomical Twilight
Moon
Length of Visible Light
Length of Day
Tomorrow will be .
, % of the Moon is Illuminated

Today's Extremes

Country Highs Country Lows

Community

WunderPhotos

Upload Photos

1,843,912 photos uploaded!

WunderBlogs® & News

Nearby

Air Quality

  Air Quality AQ Index Pollutant
Not available.

Snow Depth

Station Depth Elevation

Earthquake Activity

City Distance Mag. Time & Date
Minimum magnitude displayed is 2.5.

Coastal Water Temperatures

Place Temperature

Stations

Nearby Weather Stations

Station Location Temp. Windchill Dew Point Humidity Wind Precip. Elev Updated Type